createdAt,value
2022-12-08T00:02:26.124Z,18.55
2022-12-08T00:05:11.396Z,18.56
2022-12-08T00:07:57.277Z,18.55
2022-12-08T00:10:47.734Z,18.52
2022-12-08T00:13:10.578Z,18.54
2022-12-08T00:15:37.041Z,18.53
2022-12-08T00:18:03.469Z,18.47
2022-12-08T00:20:29.906Z,18.52
2022-12-08T00:22:56.710Z,18.51
2022-12-08T00:25:23.074Z,18.51
2022-12-08T00:27:49.483Z,18.51
2022-12-08T00:30:15.990Z,18.50
2022-12-08T00:32:42.455Z,18.50
2022-12-08T00:35:08.992Z,18.50
2022-12-08T00:37:35.396Z,18.49
2022-12-08T00:40:02.358Z,18.50
2022-12-08T00:42:29.170Z,18.50
2022-12-08T00:44:55.722Z,18.49
2022-12-08T00:47:24.809Z,18.49
2022-12-08T00:49:52.027Z,18.50
2022-12-08T00:52:18.581Z,18.48
2022-12-08T00:54:45.035Z,18.49
2022-12-08T00:57:11.639Z,18.49
2022-12-08T00:59:38.194Z,18.49
2022-12-08T01:02:04.623Z,18.50
2022-12-08T01:04:31.018Z,18.49
2022-12-08T01:06:57.401Z,18.49
2022-12-08T01:09:23.922Z,18.48
2022-12-08T01:11:50.436Z,18.48
2022-12-08T01:14:16.846Z,18.49
2022-12-08T01:16:43.858Z,18.48
2022-12-08T01:19:14.410Z,18.47
2022-12-08T01:21:41.691Z,18.47
2022-12-08T01:24:11.110Z,18.46
2022-12-08T01:26:37.562Z,18.46
2022-12-08T01:29:03.996Z,18.46
2022-12-08T01:31:30.415Z,18.45
2022-12-08T01:33:57.401Z,18.44
2022-12-08T01:36:28.085Z,18.45
2022-12-08T01:38:56.468Z,18.45
2022-12-08T01:41:24.303Z,18.45
2022-12-08T01:43:53.567Z,18.45
2022-12-08T01:46:20.085Z,18.46
2022-12-08T01:48:46.654Z,18.46
2022-12-08T01:51:13.676Z,18.47
2022-12-08T01:53:40.062Z,18.48
2022-12-08T01:56:09.071Z,18.50
2022-12-08T01:58:37.952Z,18.52
2022-12-08T02:01:04.535Z,18.53
2022-12-08T02:03:41.181Z,18.54
2022-12-08T02:06:08.070Z,18.56
2022-12-08T02:08:36.158Z,18.56
2022-12-08T02:11:02.808Z,18.57
2022-12-08T02:13:29.243Z,18.58
2022-12-08T02:15:58.751Z,18.60
2022-12-08T02:18:37.339Z,18.60
2022-12-08T02:21:05.452Z,18.61
2022-12-08T02:23:34.703Z,18.61
2022-12-08T02:26:20.141Z,18.62
2022-12-08T02:28:49.581Z,18.64
2022-12-08T02:31:19.158Z,18.63
2022-12-08T02:34:14.988Z,18.65
2022-12-08T02:36:41.423Z,18.66
2022-12-08T02:39:10.976Z,18.66
2022-12-08T02:41:53.738Z,18.67
2022-12-08T02:44:39.448Z,18.69
2022-12-08T02:47:11.865Z,18.69
2022-12-08T02:49:38.293Z,18.68
2022-12-08T02:52:28.010Z,18.70
2022-12-08T02:55:01.454Z,18.70
2022-12-08T02:57:31.135Z,18.70
2022-12-08T03:00:03.836Z,18.71
2022-12-08T03:02:39.696Z,18.70
2022-12-08T03:05:30.319Z,18.71
2022-12-08T03:08:08.959Z,18.69
2022-12-08T03:10:35.431Z,18.70
2022-12-08T03:13:08.522Z,18.71
2022-12-08T03:15:36.922Z,18.70
2022-12-08T03:18:04.536Z,18.71
2022-12-08T03:20:33.186Z,18.69
2022-12-08T03:23:00.347Z,18.69
2022-12-08T03:25:29.570Z,18.69
2022-12-08T03:27:56.551Z,18.69
2022-12-08T03:30:23.238Z,18.69
2022-12-08T03:33:02.348Z,18.67
2022-12-08T03:35:31.025Z,18.66
2022-12-08T03:38:08.537Z,18.67
2022-12-08T03:40:35.025Z,18.66
2022-12-08T03:43:01.506Z,18.66
2022-12-08T03:45:28.185Z,18.67
2022-12-08T03:47:54.683Z,18.65
2022-12-08T03:50:21.199Z,18.65
2022-12-08T03:52:47.673Z,18.65
2022-12-08T03:55:14.502Z,18.64
2022-12-08T03:57:40.980Z,18.65
2022-12-08T04:00:08.692Z,18.65
2022-12-08T04:02:35.159Z,18.65
2022-12-08T04:05:01.625Z,18.64
2022-12-08T04:07:28.098Z,18.64
2022-12-08T04:09:54.538Z,18.64
2022-12-08T04:12:20.955Z,18.64
2022-12-08T04:14:47.454Z,18.62
2022-12-08T04:17:13.947Z,18.62
2022-12-08T04:19:41.013Z,18.62
2022-12-08T04:22:07.851Z,18.63
2022-12-08T04:24:34.334Z,18.63
2022-12-08T04:27:00.797Z,18.64
2022-12-08T04:29:27.250Z,18.64
2022-12-08T04:31:53.876Z,18.65
2022-12-08T04:34:20.396Z,18.64
2022-12-08T04:36:46.838Z,18.64
2022-12-08T04:39:13.313Z,18.65
2022-12-08T04:41:39.739Z,18.64
2022-12-08T04:44:06.153Z,18.62
2022-12-08T04:46:32.763Z,18.63
2022-12-08T04:48:59.379Z,18.64
2022-12-08T04:51:27.315Z,18.63
2022-12-08T04:53:53.733Z,18.63
2022-12-08T04:56:20.200Z,18.65
2022-12-08T04:58:46.705Z,18.63
2022-12-08T05:01:13.412Z,18.64
2022-12-08T05:03:39.988Z,18.64
2022-12-08T05:06:06.446Z,18.62
2022-12-08T05:08:33.363Z,18.64
2022-12-08T05:11:07.273Z,18.65
2022-12-08T05:13:33.700Z,18.64
2022-12-08T05:16:08.277Z,18.65
2022-12-08T05:18:35.026Z,18.65
2022-12-08T05:21:01.545Z,18.65
2022-12-08T05:23:28.490Z,18.64
2022-12-08T05:25:54.928Z,18.65
2022-12-08T05:28:40.773Z,18.65
2022-12-08T05:31:08.051Z,18.64
2022-12-08T05:33:34.502Z,18.64
2022-12-08T05:36:00.927Z,18.64
2022-12-08T05:38:27.353Z,18.64
2022-12-08T05:40:53.749Z,18.63
2022-12-08T05:43:20.282Z,18.64
2022-12-08T05:45:46.796Z,18.70
2022-12-08T05:48:13.337Z,18.72
2022-12-08T05:50:40.158Z,18.76
2022-12-08T05:53:06.544Z,18.80
2022-12-08T05:55:32.941Z,18.80
2022-12-08T05:58:04.560Z,18.82
2022-12-08T06:00:34.918Z,18.85
2022-12-08T06:03:01.547Z,18.86
2022-12-08T06:05:28.145Z,18.88
2022-12-08T06:07:54.873Z,18.90
2022-12-08T06:10:21.435Z,18.91
2022-12-08T06:12:47.827Z,18.95
2022-12-08T06:15:14.257Z,18.99
2022-12-08T06:17:40.658Z,19.00
2022-12-08T06:20:07.829Z,19.02
2022-12-08T06:22:34.817Z,19.03
2022-12-08T06:25:03.241Z,19.04
2022-12-08T06:27:33.250Z,19.07
2022-12-08T06:29:59.781Z,19.09
2022-12-08T06:32:27.728Z,19.10
2022-12-08T06:34:54.259Z,19.11
2022-12-08T06:37:20.670Z,19.11
2022-12-08T06:39:47.133Z,19.15
2022-12-08T06:42:32.324Z,19.15
2022-12-08T06:44:59.091Z,19.17
2022-12-08T06:47:26.504Z,19.18
2022-12-08T06:49:53.068Z,19.19
2022-12-08T06:52:19.543Z,19.21
2022-12-08T06:54:45.962Z,19.24
2022-12-08T06:57:12.378Z,19.25
2022-12-08T06:59:39.435Z,19.26
2022-12-08T07:02:06.142Z,19.26
2022-12-08T07:04:32.661Z,19.27
2022-12-08T07:06:59.114Z,19.28
2022-12-08T07:09:25.639Z,19.30
2022-12-08T07:11:52.098Z,19.31
2022-12-08T07:14:20.332Z,19.31
2022-12-08T07:16:47.184Z,19.32
2022-12-08T07:19:13.676Z,19.33
2022-12-08T07:21:40.250Z,19.34
2022-12-08T07:24:08.608Z,19.36
2022-12-08T07:26:35.483Z,19.36
2022-12-08T07:29:01.910Z,19.36
2022-12-08T07:31:29.008Z,19.37
2022-12-08T07:33:56.180Z,19.39
2022-12-08T07:36:22.775Z,19.41
2022-12-08T07:38:49.305Z,19.42
2022-12-08T07:41:17.313Z,19.40
2022-12-08T07:43:44.197Z,19.38
2022-12-08T07:46:14.499Z,19.39
2022-12-08T07:48:42.132Z,19.39
2022-12-08T07:51:08.721Z,19.40
2022-12-08T07:53:35.243Z,19.39
2022-12-08T07:56:05.469Z,19.27
2022-12-08T07:58:31.918Z,18.86
2022-12-08T08:00:58.498Z,18.60
2022-12-08T08:03:25.270Z,18.44
2022-12-08T08:05:51.809Z,18.34
2022-12-08T08:08:18.641Z,18.22
2022-12-08T08:10:46.836Z,18.13
2022-12-08T08:13:13.624Z,18.06
2022-12-08T08:15:40.273Z,18.06
2022-12-08T08:18:07.451Z,18.09
2022-12-08T08:20:33.969Z,18.12
2022-12-08T08:23:00.474Z,18.19
2022-12-08T08:25:27.066Z,18.25
2022-12-08T08:27:54.376Z,18.28
2022-12-08T08:30:21.370Z,18.33
2022-12-08T08:32:48.659Z,18.38
2022-12-08T08:35:15.077Z,18.42
2022-12-08T08:37:45.771Z,18.46
2022-12-08T08:40:15.294Z,18.50
2022-12-08T08:42:41.705Z,18.53
2022-12-08T08:45:08.277Z,18.57
2022-12-08T08:47:34.675Z,18.60
2022-12-08T08:50:01.169Z,18.64
2022-12-08T08:52:27.660Z,18.66
2022-12-08T08:54:54.088Z,18.69
2022-12-08T08:57:25.311Z,18.73
2022-12-08T08:59:52.549Z,18.75
2022-12-08T09:02:19.451Z,18.79
2022-12-08T09:04:46.278Z,18.80
2022-12-08T09:07:13.065Z,18.83
2022-12-08T09:09:39.869Z,18.84
2022-12-08T09:12:06.634Z,18.86
2022-12-08T09:14:33.102Z,18.88
2022-12-08T09:16:59.613Z,18.91
2022-12-08T09:19:26.064Z,18.91
2022-12-08T09:21:52.581Z,18.94
2022-12-08T09:24:19.079Z,18.96
2022-12-08T09:26:45.641Z,18.97
2022-12-08T09:29:13.736Z,18.98
2022-12-08T09:31:40.774Z,18.99
2022-12-08T09:34:07.326Z,19.01
2022-12-08T09:36:33.878Z,19.02
2022-12-08T09:39:00.370Z,19.03
2022-12-08T09:41:35.985Z,19.04
2022-12-08T09:44:21.558Z,19.06
2022-12-08T09:46:53.798Z,19.06
2022-12-08T09:49:22.710Z,19.08
2022-12-08T09:51:49.218Z,19.07
2022-12-08T09:54:15.706Z,19.10
2022-12-08T09:56:42.169Z,19.12
2022-12-08T09:59:08.571Z,19.14
2022-12-08T10:01:39.811Z,19.12
2022-12-08T10:04:14.352Z,19.14
2022-12-08T10:06:41.891Z,19.14
2022-12-08T10:09:22.640Z,19.15
2022-12-08T10:11:49.438Z,19.16
2022-12-08T10:14:16.335Z,19.17
2022-12-08T10:16:46.164Z,19.20
2022-12-08T10:19:23.350Z,19.19
2022-12-08T10:21:50.316Z,19.20
2022-12-08T10:24:23.704Z,19.21
2022-12-08T10:26:50.409Z,19.22
2022-12-08T10:29:16.986Z,19.22
2022-12-08T10:31:43.885Z,19.24
2022-12-08T10:34:21.939Z,19.23
2022-12-08T10:36:52.980Z,19.23
2022-12-08T10:39:32.339Z,19.25
2022-12-08T10:42:09.809Z,19.26
2022-12-08T10:44:58.140Z,19.26
2022-12-08T10:47:26.360Z,19.27
2022-12-08T10:50:06.458Z,19.26
2022-12-08T10:52:37.550Z,19.27
2022-12-08T10:55:04.148Z,19.28
2022-12-08T10:57:30.624Z,19.28
2022-12-08T10:59:57.367Z,19.30
2022-12-08T11:02:24.225Z,19.30
2022-12-08T11:04:59.146Z,19.30
2022-12-08T11:07:26.392Z,19.31
2022-12-08T11:09:58.191Z,19.32
2022-12-08T11:12:27.914Z,19.33
2022-12-08T11:15:02.400Z,19.34
2022-12-08T11:17:35.644Z,19.34
2022-12-08T11:20:05.146Z,19.35
2022-12-08T11:22:32.310Z,19.36
2022-12-08T11:25:02.001Z,19.36
2022-12-08T11:27:32.514Z,19.37
2022-12-08T11:29:59.598Z,19.36
2022-12-08T11:32:26.056Z,19.37
2022-12-08T11:34:58.107Z,19.37
2022-12-08T11:37:32.835Z,19.38
2022-12-08T11:40:05.079Z,19.38
2022-12-08T11:42:38.472Z,19.39
2022-12-08T11:45:12.686Z,19.40
2022-12-08T11:47:55.665Z,19.40
2022-12-08T11:50:40.897Z,19.41
2022-12-08T11:53:13.904Z,19.40
2022-12-08T11:55:49.724Z,19.41
2022-12-08T11:58:18.676Z,19.41
2022-12-08T12:00:45.206Z,19.42
2022-12-08T12:03:19.054Z,19.41
2022-12-08T12:06:09.165Z,19.44
2022-12-08T12:08:47.667Z,19.44
2022-12-08T12:11:33.991Z,19.40
2022-12-08T12:14:00.395Z,19.45
2022-12-08T12:16:27.041Z,19.44
2022-12-08T12:18:56.172Z,19.45
2022-12-08T12:21:26.511Z,19.46
2022-12-08T12:24:25.178Z,19.45
2022-12-08T12:26:53.148Z,19.45
2022-12-08T12:29:21.363Z,19.46
2022-12-08T12:31:50.077Z,19.45
2022-12-08T12:34:18.656Z,19.46
2022-12-08T12:36:50.243Z,19.46
2022-12-08T12:39:18.554Z,19.46
2022-12-08T12:41:47.239Z,19.47
2022-12-08T12:44:13.829Z,19.48
2022-12-08T12:46:46.410Z,19.48
2022-12-08T12:49:31.887Z,19.49
2022-12-08T12:51:58.373Z,19.47
2022-12-08T12:54:26.063Z,19.49
2022-12-08T12:57:04.967Z,19.48
2022-12-08T13:00:05.987Z,19.50
2022-12-08T13:02:45.440Z,19.50
2022-12-08T13:05:24.145Z,19.50
2022-12-08T13:07:53.838Z,19.52
2022-12-08T13:10:22.931Z,19.51
2022-12-08T13:13:09.685Z,19.51
2022-12-08T13:15:38.213Z,19.53
2022-12-08T13:18:06.235Z,19.52
2022-12-08T13:20:41.158Z,19.53
2022-12-08T13:23:25.826Z,19.54
2022-12-08T13:25:53.075Z,19.55
2022-12-08T13:28:21.421Z,19.54
2022-12-08T13:30:49.444Z,19.56
2022-12-08T13:33:22.426Z,19.55
2022-12-08T13:36:00.777Z,19.55
2022-12-08T13:38:29.944Z,19.55
2022-12-08T13:40:57.178Z,19.56
2022-12-08T13:43:44.639Z,19.56
2022-12-08T13:55:35.505Z,19.56
2022-12-08T13:57:33.422Z,19.57
2022-12-08T14:00:07.899Z,19.57
2022-12-08T14:02:38.639Z,19.56
2022-12-08T14:05:40.715Z,19.57
2022-12-08T14:07:56.173Z,19.56
2022-12-08T14:10:24.983Z,19.57
2022-12-08T14:13:17.550Z,19.57
2022-12-08T14:15:44.133Z,19.58
2022-12-08T14:18:24.830Z,19.58
2022-12-08T14:21:20.311Z,19.58
2022-12-08T14:23:47.934Z,19.58
2022-12-08T14:26:14.418Z,19.58
2022-12-08T14:28:44.794Z,19.59
2022-12-08T14:31:14.105Z,19.59
2022-12-08T14:33:40.886Z,19.59
2022-12-08T14:36:09.520Z,19.60
2022-12-08T14:38:36.307Z,19.60
2022-12-08T14:41:06.783Z,19.60
2022-12-08T14:43:33.390Z,19.61
2022-12-08T14:46:02.370Z,19.61
2022-12-08T14:48:31.679Z,19.61
2022-12-08T14:50:58.230Z,19.62
2022-12-08T14:53:25.124Z,19.63
2022-12-08T14:55:51.920Z,19.63
2022-12-08T14:58:20.632Z,19.63
2022-12-08T15:00:48.403Z,19.63
2022-12-08T15:03:16.734Z,19.63
2022-12-08T15:05:43.443Z,19.63
2022-12-08T15:08:12.805Z,19.63
2022-12-08T15:10:40.080Z,19.63
2022-12-08T15:13:20.131Z,19.65
2022-12-08T15:15:51.484Z,19.64
2022-12-08T15:18:28.705Z,19.63
2022-12-08T15:20:56.842Z,19.65
2022-12-08T15:23:31.385Z,19.64
2022-12-08T15:25:58.372Z,19.65
2022-12-08T15:28:29.762Z,19.65
2022-12-08T15:30:56.933Z,19.66
2022-12-08T15:33:23.473Z,19.66
2022-12-08T15:35:50.683Z,19.66
2022-12-08T15:38:19.054Z,19.66
2022-12-08T15:40:45.498Z,19.67
2022-12-08T15:43:11.972Z,19.67
2022-12-08T15:45:40.146Z,19.65
2022-12-08T15:48:28.185Z,19.67
2022-12-08T15:50:55.278Z,19.68
2022-12-08T15:53:21.995Z,19.64
2022-12-08T15:56:10.797Z,19.68
2022-12-08T15:58:54.083Z,19.67
2022-12-08T16:01:21.075Z,19.69
2022-12-08T16:09:31.250Z,19.69
2022-12-08T16:12:16.830Z,19.69
2022-12-08T16:17:31.336Z,19.68
2022-12-08T16:19:57.859Z,19.69
2022-12-08T16:25:21.632Z,19.70
2022-12-08T16:28:05.361Z,19.70
2022-12-08T16:30:35.174Z,19.71
2022-12-08T16:33:01.887Z,19.70
2022-12-08T16:35:28.323Z,19.70
2022-12-08T16:37:54.886Z,19.71
2022-12-08T16:40:21.468Z,19.71
2022-12-08T16:42:49.861Z,19.70
2022-12-08T16:45:18.228Z,19.71
2022-12-08T16:47:46.237Z,19.71
2022-12-08T16:50:14.785Z,19.73
2022-12-08T16:52:41.538Z,19.72
2022-12-08T16:55:11.973Z,19.73
2022-12-08T16:57:38.909Z,19.73
2022-12-08T17:00:06.749Z,19.72
2022-12-08T17:02:33.409Z,19.75
2022-12-08T17:04:59.883Z,19.75
2022-12-08T17:07:26.564Z,19.75
2022-12-08T17:09:53.065Z,19.75
2022-12-08T17:12:19.545Z,19.72
2022-12-08T17:14:46.010Z,19.76
2022-12-08T17:17:12.640Z,19.76
2022-12-08T17:19:39.116Z,19.76
2022-12-08T17:22:05.570Z,19.76
2022-12-08T17:24:32.068Z,19.77
2022-12-08T17:27:03.947Z,19.76
2022-12-08T17:29:31.300Z,19.75
2022-12-08T17:31:58.021Z,19.75
2022-12-08T17:34:24.568Z,19.75
2022-12-08T17:36:51.069Z,19.73
2022-12-08T17:39:18.945Z,19.75
2022-12-08T17:41:45.902Z,19.76
2022-12-08T17:44:13.720Z,19.75
2022-12-08T17:46:43.438Z,19.76
2022-12-08T17:49:15.683Z,19.76
2022-12-08T17:51:42.146Z,19.76
2022-12-08T17:54:08.648Z,19.75
2022-12-08T17:56:35.042Z,19.76
2022-12-08T17:59:02.531Z,19.76
2022-12-08T18:01:29.082Z,19.77
2022-12-08T18:03:55.636Z,19.76
2022-12-08T18:06:24.649Z,19.76
2022-12-08T18:08:53.337Z,19.76
2022-12-08T18:11:20.039Z,19.76
2022-12-08T18:13:50.197Z,19.77
2022-12-08T18:16:17.498Z,19.76
2022-12-08T18:18:43.988Z,19.77
2022-12-08T18:21:10.409Z,19.77
2022-12-08T18:23:37.925Z,19.77
2022-12-08T18:26:05.025Z,19.76
2022-12-08T18:28:31.547Z,19.77
2022-12-08T18:30:58.008Z,19.78
2022-12-08T18:33:24.682Z,19.77
2022-12-08T18:35:51.153Z,19.79
2022-12-08T18:38:17.597Z,19.79
2022-12-08T18:40:44.079Z,19.78
2022-12-08T18:43:10.601Z,19.79
2022-12-08T18:45:38.834Z,19.80
2022-12-08T18:48:05.482Z,19.80
2022-12-08T18:50:32.153Z,19.79
2022-12-08T18:52:58.643Z,19.79
2022-12-08T18:55:25.129Z,19.80
2022-12-08T18:57:51.667Z,19.79
2022-12-08T19:00:18.836Z,19.79
2022-12-08T19:02:45.385Z,19.79
2022-12-08T19:05:13.258Z,19.80
2022-12-08T19:07:39.889Z,19.81
2022-12-08T19:10:06.986Z,19.81
2022-12-08T19:12:33.691Z,19.81
2022-12-08T19:15:00.193Z,19.80
2022-12-08T19:17:26.784Z,19.81
2022-12-08T19:19:53.206Z,19.81
2022-12-08T19:22:19.634Z,19.80
2022-12-08T19:24:46.255Z,19.81
2022-12-08T19:27:12.710Z,19.82
2022-12-08T19:29:39.293Z,19.81
2022-12-08T19:32:05.782Z,19.82
2022-12-08T19:34:32.221Z,19.82
2022-12-08T19:36:58.669Z,19.83
2022-12-08T19:39:43.453Z,19.82
2022-12-08T19:42:33.203Z,19.81
2022-12-08T19:45:05.968Z,19.81
2022-12-08T19:47:32.509Z,19.80
2022-12-08T19:50:17.582Z,19.80
2022-12-08T19:52:44.763Z,19.80
2022-12-08T19:55:11.879Z,19.80
2022-12-08T19:57:38.477Z,19.81
2022-12-08T20:00:05.688Z,19.81
2022-12-08T20:02:32.699Z,19.81
2022-12-08T20:04:59.287Z,19.81
2022-12-08T20:07:25.669Z,19.81
2022-12-08T20:09:52.070Z,19.81
2022-12-08T20:12:18.521Z,19.82
2022-12-08T20:14:46.255Z,19.81
2022-12-08T20:17:12.898Z,19.82
2022-12-08T20:19:39.445Z,19.81
2022-12-08T20:22:05.988Z,19.81
2022-12-08T20:24:32.575Z,19.81
2022-12-08T20:26:58.960Z,19.81
2022-12-08T20:29:25.352Z,19.81
2022-12-08T20:31:51.980Z,19.80
2022-12-08T20:34:19.076Z,19.83
2022-12-08T20:36:45.839Z,19.82
2022-12-08T20:39:17.406Z,19.82
2022-12-08T20:41:44.496Z,19.81
2022-12-08T20:44:11.165Z,19.82
2022-12-08T20:46:37.695Z,19.82
2022-12-08T20:49:04.613Z,19.82
2022-12-08T20:51:32.608Z,19.83
2022-12-08T20:53:59.285Z,19.82
2022-12-08T20:56:26.065Z,19.83
2022-12-08T20:58:53.406Z,19.83
2022-12-08T21:01:21.688Z,19.83
2022-12-08T21:03:49.477Z,19.83
2022-12-08T21:06:16.338Z,19.84
2022-12-08T21:08:42.960Z,19.83
2022-12-08T21:11:09.732Z,19.83
2022-12-08T21:13:39.521Z,19.83
2022-12-08T21:16:06.933Z,19.84
2022-12-08T21:18:39.222Z,19.85
2022-12-08T21:21:08.076Z,19.84
2022-12-08T21:23:35.047Z,19.84
2022-12-08T21:26:02.009Z,19.84
2022-12-08T21:28:28.874Z,19.85
2022-12-08T21:30:55.387Z,19.85
2022-12-08T21:33:22.270Z,19.85
2022-12-08T21:35:49.062Z,19.85
2022-12-08T21:38:15.540Z,19.85
2022-12-08T21:40:42.190Z,19.84
2022-12-08T21:43:08.780Z,19.84
2022-12-08T21:45:35.464Z,19.84
2022-12-08T21:48:10.291Z,19.83
2022-12-08T21:50:38.306Z,19.84
2022-12-08T21:53:04.917Z,19.84
2022-12-08T21:55:31.463Z,19.85
2022-12-08T21:58:00.993Z,19.84
2022-12-08T22:00:28.042Z,19.83
2022-12-08T22:02:55.221Z,19.81
2022-12-08T22:05:22.099Z,19.81
2022-12-08T22:07:48.825Z,19.81
2022-12-08T22:10:15.841Z,19.81
2022-12-08T22:12:42.505Z,19.83
2022-12-08T22:15:10.202Z,19.73
2022-12-08T22:17:37.761Z,19.83
2022-12-08T22:20:06.488Z,19.81
2022-12-08T22:22:34.552Z,19.81
2022-12-08T22:25:01.551Z,19.81
2022-12-08T22:27:28.214Z,19.83
2022-12-08T22:29:55.255Z,19.83
2022-12-08T22:32:22.115Z,19.84
2022-12-08T22:34:48.592Z,19.83
2022-12-08T22:37:15.132Z,19.83
2022-12-08T22:39:41.533Z,19.84
2022-12-08T22:42:08.316Z,19.78
2022-12-08T22:44:34.736Z,19.82
2022-12-08T22:47:01.275Z,19.78
2022-12-08T22:49:27.751Z,19.83
2022-12-08T22:51:54.245Z,19.85
2022-12-08T22:54:20.682Z,19.85
2022-12-08T22:56:47.367Z,19.84
2022-12-08T22:59:13.909Z,19.84
2022-12-08T23:01:40.683Z,19.84
2022-12-08T23:04:10.315Z,19.82
2022-12-08T23:06:40.971Z,19.78
2022-12-08T23:09:08.556Z,19.72
2022-12-08T23:11:35.966Z,19.72
2022-12-08T23:14:02.600Z,19.72
2022-12-08T23:16:29.224Z,19.73
2022-12-08T23:18:56.068Z,19.73
2022-12-08T23:21:22.913Z,19.74
2022-12-08T23:23:49.555Z,19.74
2022-12-08T23:26:18.054Z,19.76
2022-12-08T23:28:44.825Z,19.76
2022-12-08T23:31:11.293Z,19.78
2022-12-08T23:33:37.857Z,19.78
2022-12-08T23:36:04.496Z,19.79
2022-12-08T23:38:30.909Z,19.80
2022-12-08T23:41:00.274Z,19.80
2022-12-08T23:43:26.875Z,19.81
2022-12-08T23:45:53.505Z,19.81
2022-12-08T23:48:20.078Z,19.83
2022-12-08T23:50:46.602Z,19.85
2022-12-08T23:53:13.481Z,19.85
2022-12-08T23:55:40.113Z,19.85
2022-12-08T23:58:06.891Z,19.86
